createdAt,value
2022-12-26T00:06:01.387Z,3.90
2022-12-26T00:08:33.006Z,3.90
2022-12-26T00:11:01.632Z,3.80
2022-12-26T00:13:38.332Z,3.80
2022-12-26T00:16:26.378Z,4.00
2022-12-26T00:19:43.119Z,3.80
2022-12-26T00:22:27.954Z,4.20
2022-12-26T00:24:59.792Z,3.80
2022-12-26T00:27:36.495Z,3.70
2022-12-26T00:30:08.570Z,3.80
2022-12-26T00:32:44.165Z,3.80
2022-12-26T00:35:12.622Z,3.80
2022-12-26T00:37:43.519Z,3.80
2022-12-26T00:40:16.011Z,3.80
2022-12-26T00:42:48.860Z,3.80
2022-12-26T00:45:25.043Z,3.80
2022-12-26T00:48:04.826Z,3.80
2022-12-26T00:50:35.091Z,3.80
2022-12-26T00:53:07.851Z,3.90
2022-12-26T00:56:12.102Z,3.80
2022-12-26T00:58:42.598Z,4.20
2022-12-26T01:12:14.826Z,3.90
2022-12-26T01:15:01.876Z,4.10
2022-12-26T01:17:42.468Z,4.00
2022-12-26T01:20:43.699Z,4.00
2022-12-26T01:23:12.735Z,4.00
2022-12-26T01:26:17.097Z,4.30
2022-12-26T01:29:58.203Z,4.30
2022-12-26T01:33:17.744Z,4.10
2022-12-26T01:36:16.488Z,4.10
2022-12-26T01:38:47.667Z,4.10
2022-12-26T01:47:51.036Z,4.10
2022-12-26T01:50:31.643Z,4.10
2022-12-26T01:53:11.767Z,4.10
2022-12-26T01:55:41.311Z,4.10
2022-12-26T01:58:20.968Z,4.10
2022-12-26T02:01:27.848Z,4.50
2022-12-26T02:04:37.039Z,4.80
2022-12-26T02:07:53.091Z,4.10
2022-12-26T02:15:01.440Z,4.10
2022-12-26T02:18:50.291Z,4.10
2022-12-26T02:30:25.078Z,4.30
2022-12-26T02:41:35.933Z,4.30
2022-12-26T02:44:42.450Z,4.10
2022-12-26T02:50:28.025Z,4.00
2022-12-26T02:53:27.745Z,4.10
2022-12-26T02:56:37.457Z,4.20
2022-12-26T02:59:55.001Z,4.10
2022-12-26T03:02:45.499Z,4.70
2022-12-26T03:05:38.852Z,4.20
2022-12-26T03:08:39.912Z,4.00
2022-12-26T03:11:25.726Z,4.00
2022-12-26T03:13:57.045Z,4.10
2022-12-26T03:19:32.060Z,4.20
2022-12-26T03:28:39.024Z,4.30
2022-12-26T03:31:12.339Z,4.10
2022-12-26T03:37:04.553Z,4.00
2022-12-26T03:40:05.071Z,4.00
2022-12-26T03:43:01.205Z,4.10
2022-12-26T03:52:35.433Z,4.60
2022-12-26T03:55:30.184Z,4.00
2022-12-26T04:01:28.049Z,4.10
2022-12-26T04:04:16.996Z,4.10
2022-12-26T04:07:10.588Z,4.20
2022-12-26T04:10:17.831Z,4.50
2022-12-26T04:13:06.671Z,4.00
2022-12-26T04:16:02.135Z,4.00
2022-12-26T04:19:12.389Z,4.40
2022-12-26T04:25:09.996Z,4.00
2022-12-26T04:27:55.974Z,4.00
2022-12-26T04:30:41.891Z,4.00
2022-12-26T04:33:35.551Z,4.60
2022-12-26T04:36:26.393Z,4.00
2022-12-26T04:39:15.756Z,4.00
2022-12-26T04:42:08.382Z,4.00
2022-12-26T04:44:46.099Z,4.10
2022-12-26T04:50:14.338Z,4.20
2022-12-26T04:53:02.669Z,4.20
2022-12-26T04:55:36.145Z,4.20
2022-12-26T04:58:13.441Z,4.10
2022-12-26T05:01:09.031Z,4.10
2022-12-26T05:07:01.626Z,4.20
2022-12-26T05:09:36.242Z,4.10
2022-12-26T05:12:14.409Z,4.20
2022-12-26T05:14:45.631Z,4.10
2022-12-26T05:17:33.020Z,4.10
2022-12-26T05:20:18.685Z,4.10
2022-12-26T05:23:11.547Z,4.70
2022-12-26T05:26:02.097Z,4.10
2022-12-26T05:28:46.908Z,4.10
2022-12-26T05:31:36.045Z,4.10
2022-12-26T05:34:17.673Z,4.10
2022-12-26T05:42:39.076Z,4.10
2022-12-26T05:45:08.788Z,4.20
2022-12-26T05:50:25.065Z,4.20
2022-12-26T05:53:06.677Z,4.30
2022-12-26T05:56:21.509Z,4.20
2022-12-26T05:59:11.799Z,4.20
2022-12-26T06:01:43.154Z,3.90
2022-12-26T06:04:15.406Z,4.20
2022-12-26T06:07:13.031Z,4.50
2022-12-26T06:09:46.000Z,4.10
2022-12-26T06:12:43.823Z,4.30
2022-12-26T06:15:30.445Z,4.20
2022-12-26T06:17:59.404Z,4.70
2022-12-26T06:20:40.400Z,4.30
2022-12-26T06:23:08.950Z,4.20
2022-12-26T06:25:50.417Z,4.20
2022-12-26T06:28:33.440Z,4.20
2022-12-26T06:31:13.177Z,4.20
2022-12-26T06:33:44.237Z,4.30
2022-12-26T06:36:15.314Z,4.70
2022-12-26T06:38:51.058Z,4.30
2022-12-26T06:41:36.227Z,4.20
2022-12-26T06:44:17.866Z,4.20
2022-12-26T06:46:53.240Z,4.20
2022-12-26T06:49:32.581Z,4.80
2022-12-26T06:52:04.742Z,4.20
2022-12-26T06:54:34.973Z,4.20
2022-12-26T06:57:11.657Z,4.30
2022-12-26T06:59:57.605Z,4.50
2022-12-26T07:02:34.776Z,4.20
2022-12-26T07:05:15.196Z,4.00
2022-12-26T07:09:17.401Z,4.20
2022-12-26T07:12:02.138Z,4.30
2022-12-26T07:14:31.346Z,4.10
2022-12-26T07:17:06.352Z,4.20
2022-12-26T07:19:38.058Z,4.20
2022-12-26T07:22:19.976Z,4.10
2022-12-26T07:24:54.504Z,4.30
2022-12-26T07:30:19.881Z,4.20
2022-12-26T07:32:48.932Z,4.20
2022-12-26T07:35:26.408Z,4.30
2022-12-26T07:38:05.902Z,4.20
2022-12-26T07:40:45.059Z,4.40
2022-12-26T07:43:16.743Z,5.10
2022-12-26T07:45:51.226Z,4.60
2022-12-26T07:48:22.725Z,4.30
2022-12-26T07:50:55.208Z,4.20
2022-12-26T07:53:26.759Z,4.30
2022-12-26T07:56:00.607Z,4.30
2022-12-26T07:58:29.814Z,4.30
2022-12-26T08:01:01.794Z,4.30
2022-12-26T08:03:30.783Z,4.40
2022-12-26T08:06:11.543Z,4.40
2022-12-26T08:08:45.411Z,4.40
2022-12-26T08:11:24.337Z,4.40
2022-12-26T08:13:53.611Z,4.40
2022-12-26T08:16:28.406Z,4.40
2022-12-26T08:18:57.061Z,4.40
2022-12-26T08:21:25.669Z,4.50
2022-12-26T08:23:56.759Z,4.80
2022-12-26T08:26:26.478Z,4.40
2022-12-26T08:28:56.604Z,4.50
2022-12-26T08:33:57.964Z,4.60
2022-12-26T08:36:26.763Z,4.60
2022-12-26T08:38:55.634Z,5.00
2022-12-26T08:41:26.360Z,4.50
2022-12-26T08:46:46.326Z,4.60
2022-12-26T08:49:17.538Z,5.10
2022-12-26T08:51:46.469Z,4.70
2022-12-26T08:54:16.751Z,4.70
2022-12-26T08:56:49.874Z,5.20
2022-12-26T08:59:28.701Z,4.80
2022-12-26T09:01:59.745Z,5.20
2022-12-26T09:04:31.770Z,4.90
2022-12-26T09:07:00.572Z,5.00
2022-12-26T09:09:31.769Z,5.00
2022-12-26T09:12:17.320Z,5.10
2022-12-26T09:14:50.639Z,5.10
2022-12-26T09:17:35.705Z,4.90
2022-12-26T09:20:15.119Z,5.40
2022-12-26T09:22:53.667Z,5.90
2022-12-26T09:25:40.648Z,5.10
2022-12-26T09:28:45.066Z,5.10
2022-12-26T09:31:48.026Z,5.10
2022-12-26T09:35:05.211Z,4.70
2022-12-26T09:41:06.097Z,5.20
2022-12-26T09:51:11.638Z,5.30
2022-12-26T09:58:44.674Z,5.40
2022-12-26T10:32:27.674Z,5.20
2022-12-26T10:36:03.076Z,5.90
2022-12-26T10:39:50.193Z,6.10
2022-12-26T10:50:27.680Z,6.20
2022-12-26T10:57:02.439Z,6.40
2022-12-26T11:07:41.182Z,6.70
2022-12-26T11:09:53.941Z,6.50
2022-12-26T11:24:01.565Z,7.40
2022-12-26T11:30:58.794Z,8.10
2022-12-26T11:34:30.644Z,7.70
2022-12-26T11:41:10.979Z,7.90
2022-12-26T11:44:17.197Z,7.90
2022-12-26T12:18:00.231Z,7.70
2022-12-26T12:55:33.252Z,8.40
2022-12-26T12:58:39.843Z,8.50
2022-12-26T13:01:49.717Z,8.50
2022-12-26T13:05:12.427Z,8.70
2022-12-26T13:08:57.002Z,8.50
2022-12-26T13:14:56.879Z,8.90
2022-12-26T13:17:43.218Z,8.90
2022-12-26T13:20:20.735Z,8.70
2022-12-26T13:26:33.790Z,9.10
2022-12-26T13:31:50.173Z,8.70
2022-12-26T13:34:57.150Z,8.60
2022-12-26T13:47:42.444Z,8.80
2022-12-26T13:50:49.945Z,9.50
2022-12-26T13:57:22.521Z,8.80
2022-12-26T14:00:10.610Z,10.00
2022-12-26T14:03:20.450Z,8.20
2022-12-26T14:06:43.120Z,8.80
2022-12-26T14:10:05.426Z,9.60
2022-12-26T14:12:49.612Z,9.20
2022-12-26T14:15:45.204Z,8.90
2022-12-26T14:18:36.012Z,9.40
2022-12-26T14:21:47.911Z,8.90
2022-12-26T14:25:06.085Z,10.30
2022-12-26T14:27:58.151Z,8.80
2022-12-26T14:31:17.092Z,8.80
2022-12-26T14:34:10.709Z,8.70
2022-12-26T14:40:20.707Z,8.80
2022-12-26T14:43:33.741Z,8.60
2022-12-26T14:46:33.126Z,8.60
2022-12-26T14:49:22.582Z,8.00
2022-12-26T14:52:22.212Z,8.60
2022-12-26T14:55:05.461Z,8.60
2022-12-26T14:57:59.622Z,8.40
2022-12-26T15:00:45.567Z,8.60
2022-12-26T15:04:00.549Z,8.60
2022-12-26T15:07:34.605Z,8.60
2022-12-26T15:10:51.122Z,8.60
2022-12-26T15:14:13.057Z,8.60
2022-12-26T15:17:54.105Z,8.10
2022-12-26T15:21:02.540Z,8.60
2022-12-26T15:24:11.429Z,8.50
2022-12-26T15:27:29.744Z,8.60
2022-12-26T15:30:34.558Z,8.60
2022-12-26T15:33:14.599Z,8.90
2022-12-26T15:40:02.900Z,8.50
2022-12-26T15:43:32.629Z,8.50
2022-12-26T15:46:35.115Z,8.50
2022-12-26T15:49:44.696Z,8.30
2022-12-26T15:52:32.240Z,8.50
2022-12-26T15:55:50.662Z,8.50
2022-12-26T15:58:56.691Z,8.50
2022-12-26T16:04:57.815Z,9.10
2022-12-26T16:07:36.789Z,8.50
2022-12-26T16:10:28.077Z,8.50
2022-12-26T16:13:03.000Z,8.50
2022-12-26T16:15:34.497Z,8.50
2022-12-26T16:18:16.447Z,8.50
2022-12-26T16:21:04.144Z,8.50
2022-12-26T16:23:38.147Z,8.50
2022-12-26T16:26:06.800Z,8.50
2022-12-26T16:28:38.370Z,8.50
2022-12-26T16:31:09.150Z,8.50
2022-12-26T16:33:41.538Z,8.50
2022-12-26T16:36:11.832Z,8.50
2022-12-26T16:38:40.298Z,8.50
2022-12-26T16:41:22.103Z,8.50
2022-12-26T16:43:51.732Z,8.50
2022-12-26T16:46:23.954Z,8.60
2022-12-26T16:48:56.864Z,8.60
2022-12-26T16:51:41.309Z,8.60
2022-12-26T16:54:17.805Z,8.60
2022-12-26T16:56:51.086Z,8.60
2022-12-26T16:59:22.244Z,8.60
2022-12-26T17:01:54.354Z,8.60
2022-12-26T17:04:25.115Z,8.40
2022-12-26T17:06:57.665Z,8.50
2022-12-26T17:09:28.660Z,8.50
2022-12-26T17:12:00.808Z,8.50
2022-12-26T17:14:33.057Z,8.40
2022-12-26T17:17:12.663Z,8.50
2022-12-26T17:19:47.760Z,8.50
2022-12-26T17:22:29.114Z,8.50
2022-12-26T17:25:20.601Z,8.50
2022-12-26T17:28:12.478Z,8.50
2022-12-26T17:30:42.682Z,8.60
2022-12-26T17:33:25.000Z,8.60
2022-12-26T17:38:53.680Z,8.90
2022-12-26T17:41:21.992Z,8.50
2022-12-26T17:43:52.646Z,8.50
2022-12-26T17:49:04.983Z,8.70
2022-12-26T17:51:33.669Z,8.50
2022-12-26T17:54:01.943Z,8.60
2022-12-26T17:56:30.690Z,8.60
2022-12-26T17:58:59.048Z,8.60
2022-12-26T18:01:27.473Z,8.60
2022-12-26T18:04:01.439Z,8.90
2022-12-26T18:06:31.154Z,8.70
2022-12-26T18:09:09.758Z,8.70
2022-12-26T18:11:42.627Z,8.60
2022-12-26T18:14:18.904Z,8.70
2022-12-26T18:16:57.028Z,8.70
2022-12-26T18:19:27.776Z,8.70
2022-12-26T18:22:05.631Z,8.80
2022-12-26T18:24:40.171Z,8.80
2022-12-26T18:27:15.827Z,8.80
2022-12-26T18:29:54.675Z,8.90
2022-12-26T18:32:25.600Z,8.90
2022-12-26T18:35:03.507Z,8.80
2022-12-26T18:38:04.608Z,8.60
2022-12-26T18:40:40.147Z,8.80
2022-12-26T18:43:12.115Z,8.70
2022-12-26T18:45:41.223Z,8.50
2022-12-26T18:48:14.714Z,8.70
2022-12-26T18:50:46.364Z,8.80
2022-12-26T18:53:15.112Z,8.70
2022-12-26T18:56:08.050Z,8.70
2022-12-26T18:58:36.464Z,8.70
2022-12-26T19:01:07.745Z,8.70
2022-12-26T19:03:48.152Z,8.60
2022-12-26T19:06:20.717Z,8.70
2022-12-26T19:08:49.573Z,9.20
2022-12-26T19:11:48.100Z,8.70
2022-12-26T19:14:22.120Z,8.60
2022-12-26T19:16:50.568Z,8.60
2022-12-26T19:19:18.928Z,8.70
2022-12-26T19:21:47.294Z,8.60
2022-12-26T19:24:16.212Z,8.60
2022-12-26T19:26:44.589Z,8.90
2022-12-26T19:29:15.915Z,8.70
2022-12-26T19:32:15.783Z,8.60
2022-12-26T19:34:48.722Z,8.60
2022-12-26T19:37:17.944Z,8.60
2022-12-26T19:39:46.322Z,8.60
2022-12-26T19:42:18.898Z,8.60
2022-12-26T19:44:51.049Z,8.70
2022-12-26T19:47:24.749Z,8.70
2022-12-26T19:49:54.549Z,8.70
2022-12-26T19:52:24.573Z,8.70
2022-12-26T19:54:52.859Z,8.60
2022-12-26T19:57:22.047Z,8.70
2022-12-26T19:59:56.522Z,8.70
2022-12-26T20:02:25.208Z,8.60
2022-12-26T20:04:55.268Z,8.70
2022-12-26T20:07:23.774Z,8.80
2022-12-26T20:09:52.713Z,8.70
2022-12-26T20:12:21.182Z,8.50
2022-12-26T20:14:49.642Z,8.60
2022-12-26T20:17:18.244Z,8.60
2022-12-26T20:19:47.599Z,8.50
2022-12-26T20:22:17.549Z,8.70
2022-12-26T20:24:49.637Z,8.80
2022-12-26T20:27:19.088Z,8.70
2022-12-26T20:29:47.684Z,8.70
2022-12-26T20:32:19.000Z,8.70
2022-12-26T20:34:47.506Z,8.60
2022-12-26T20:37:18.917Z,8.70
2022-12-26T20:40:06.843Z,8.60
2022-12-26T20:42:38.342Z,8.60
2022-12-26T20:45:23.806Z,8.60
2022-12-26T20:47:54.761Z,8.60
2022-12-26T20:50:40.426Z,8.60
2022-12-26T20:53:39.877Z,8.60
2022-12-26T20:59:33.266Z,8.60
2022-12-26T21:02:02.956Z,8.60
2022-12-26T21:04:35.083Z,8.60
2022-12-26T21:07:03.545Z,8.60
2022-12-26T21:09:32.217Z,8.50
2022-12-26T21:12:02.600Z,8.50
2022-12-26T21:14:34.343Z,8.50
2022-12-26T21:17:02.972Z,8.50
2022-12-26T21:19:33.834Z,8.50
2022-12-26T21:22:05.248Z,8.00
2022-12-26T21:24:46.553Z,8.50
2022-12-26T21:27:19.669Z,8.50
2022-12-26T21:29:49.413Z,8.70
2022-12-26T21:32:32.723Z,8.50
2022-12-26T21:35:04.333Z,8.50
2022-12-26T21:37:52.998Z,8.50
2022-12-26T21:40:31.651Z,8.50
2022-12-26T21:43:04.672Z,8.30
2022-12-26T21:45:40.695Z,8.40
2022-12-26T21:48:29.304Z,8.30
2022-12-26T21:51:04.606Z,8.20
2022-12-26T21:53:41.727Z,8.10
2022-12-26T21:56:10.909Z,8.10
2022-12-26T21:59:00.703Z,8.10
2022-12-26T22:01:42.085Z,8.20
2022-12-26T22:04:20.551Z,8.10
2022-12-26T22:06:54.917Z,8.00
2022-12-26T22:09:28.638Z,8.00
2022-12-26T22:12:14.888Z,8.10
2022-12-26T22:18:21.675Z,7.90
2022-12-26T22:21:05.709Z,7.90
2022-12-26T22:23:34.324Z,7.80
2022-12-26T22:26:04.426Z,7.80
2022-12-26T22:28:34.033Z,7.70
2022-12-26T22:31:07.377Z,7.60
2022-12-26T22:33:36.079Z,7.50
2022-12-26T22:36:10.442Z,7.60
2022-12-26T22:38:39.548Z,7.50
2022-12-26T22:41:08.161Z,7.50
2022-12-26T22:43:59.585Z,7.70
2022-12-26T22:46:37.007Z,7.60
2022-12-26T22:49:15.637Z,7.70
2022-12-26T22:51:49.950Z,7.70
2022-12-26T22:54:27.973Z,7.80
2022-12-26T22:56:58.469Z,7.70
2022-12-26T23:00:06.523Z,7.70
2022-12-26T23:02:22.906Z,7.70
2022-12-26T23:05:03.468Z,7.70
2022-12-26T23:07:32.721Z,7.80
2022-12-26T23:10:01.916Z,7.80
2022-12-26T23:12:50.813Z,7.70
2022-12-26T23:15:30.082Z,7.70
2022-12-26T23:18:27.574Z,7.80
2022-12-26T23:23:58.403Z,7.70
2022-12-26T23:26:26.853Z,7.70
2022-12-26T23:29:12.454Z,7.60
2022-12-26T23:31:41.068Z,7.70
2022-12-26T23:37:37.512Z,7.70
2022-12-26T23:40:07.060Z,7.60
2022-12-26T23:42:35.536Z,7.60
2022-12-26T23:45:14.140Z,7.70
2022-12-26T23:47:44.252Z,7.60
2022-12-26T23:50:14.859Z,7.60
2022-12-26T23:52:45.769Z,7.60
2022-12-26T23:55:14.681Z,7.60
2022-12-26T23:57:43.275Z,7.60
